Current | Forecast
Updated: 6:01 PM EEST on April 21, 2018
Observed at L'viv, Ukraine
Temperature 25°C
Humidity 29%
Dew Point 6°C
Wind West at 25 km/h
Wind Gust 43 km/h
Pressure 1013 hPa (Steady)
Conditions Clear
Visibility -
UV N/A
Clouds
Yesterday's Maximum 17°C
Yesterday's Minimum 7°C approx.
Yesterday's Heating Degree Days 11 approx.
Sunrise6:23 AM EEST
Sunset8:26 PM EEST
Moon Rise10:31 AM EEST
Moon Set1:30 AM EEST
Moon PhaseMoon Phase
Waxing Crescent
Raw METARSPECI UKLL 211501Z 27007G12MPS CAVOK 25/06 Q1013 R31/D NOSIG


Monday
. High: 55° F.
Tuesday
. High: 59° F.
Wednesday
. High: 68° F.
Thursday
. High: 75° F.
Friday
. High: 60° F.
Saturday
. High: 59° F.
Sunday
. High: 64° F.
Monday
. High: 57° F.

Units: English | Metric

Find the Weather for any City, State or Zipcode, or Country:

U.S. State List | Severe Weather | Tropical Storms | Ski Conditions
United States | Canada | Central America | South America | Asia | Europe | Australia | Africa | Islands

Weather Underground

© Copyright 2018
The Weather Company, LLC